createdAt,value
2023-09-21T00:01:13.992Z,26.00
2023-09-21T00:03:41.791Z,25.90
2023-09-21T00:06:09.522Z,25.90
2023-09-21T00:08:36.598Z,25.90
2023-09-21T00:11:06.298Z,25.80
2023-09-21T00:13:33.839Z,25.70
2023-09-21T00:16:02.161Z,25.70
2023-09-21T00:18:33.095Z,25.70
2023-09-21T00:21:02.810Z,25.60
2023-09-21T00:23:31.346Z,25.60
2023-09-21T00:26:01.985Z,25.50
2023-09-21T00:28:30.181Z,25.50
2023-09-21T00:31:03.237Z,25.40
2023-09-21T00:33:31.895Z,25.40
2023-09-21T00:35:59.976Z,25.30
2023-09-21T00:38:28.222Z,25.30
2023-09-21T00:41:00.094Z,25.20
2023-09-21T00:43:27.203Z,25.10
2023-09-21T00:45:58.563Z,25.10
2023-09-21T00:48:40.155Z,25.00
2023-09-21T00:51:10.972Z,25.00
2023-09-21T00:53:41.022Z,24.90
2023-09-21T00:56:12.613Z,24.90
2023-09-21T00:58:46.370Z,24.90
2023-09-21T01:01:24.777Z,24.90
2023-09-21T01:03:54.121Z,24.90
2023-09-21T01:06:21.449Z,24.90
2023-09-21T01:08:50.046Z,24.90
2023-09-21T01:11:18.139Z,24.90
2023-09-21T01:13:45.034Z,24.90
2023-09-21T01:16:12.524Z,24.90
2023-09-21T01:18:43.578Z,24.90
2023-09-21T01:21:12.054Z,24.90
2023-09-21T01:23:39.037Z,24.90
2023-09-21T01:26:06.604Z,24.90
2023-09-21T01:28:33.505Z,24.90
2023-09-21T01:31:01.930Z,24.90
2023-09-21T01:33:29.171Z,24.90
2023-09-21T01:35:56.983Z,24.90
2023-09-21T01:38:27.188Z,24.90
2023-09-21T01:40:54.633Z,24.90
2023-09-21T01:43:21.581Z,24.90
2023-09-21T01:45:51.672Z,24.80
2023-09-21T01:48:21.777Z,24.80
2023-09-21T01:50:51.822Z,24.80
2023-09-21T01:53:22.191Z,24.80
2023-09-21T01:55:52.789Z,24.80
2023-09-21T01:58:23.576Z,24.70
2023-09-21T02:00:51.802Z,24.70
2023-09-21T02:03:23.753Z,24.70
2023-09-21T02:05:50.860Z,24.70
2023-09-21T02:08:21.229Z,24.70
2023-09-21T02:10:52.038Z,24.60
2023-09-21T02:13:19.881Z,24.60
2023-09-21T02:15:46.828Z,24.60
2023-09-21T02:18:13.911Z,24.60
2023-09-21T02:20:46.225Z,24.60
2023-09-21T02:23:14.191Z,24.60
2023-09-21T02:25:42.235Z,24.60
2023-09-21T02:28:13.417Z,24.50
2023-09-21T02:30:46.067Z,24.50
2023-09-21T02:33:13.878Z,24.50
2023-09-21T02:35:42.901Z,24.50
2023-09-21T02:38:11.198Z,24.50
2023-09-21T02:40:40.225Z,24.50
2023-09-21T02:43:10.419Z,24.50
2023-09-21T02:45:40.775Z,24.50
2023-09-21T02:48:08.838Z,24.50
2023-09-21T02:50:36.166Z,24.50
2023-09-21T02:53:09.864Z,24.50
2023-09-21T02:55:38.760Z,24.50
2023-09-21T02:58:16.897Z,24.50
2023-09-21T03:00:46.843Z,24.50
2023-09-21T03:03:17.161Z,24.50
2023-09-21T03:05:49.230Z,24.50
2023-09-21T03:08:17.803Z,24.50
2023-09-21T03:10:46.392Z,24.40
2023-09-21T03:13:19.128Z,24.40
2023-09-21T03:16:11.643Z,24.30
2023-09-21T03:18:39.147Z,24.30
2023-09-21T03:21:11.076Z,24.30
2023-09-21T03:23:38.388Z,24.20
2023-09-21T03:26:05.727Z,24.20
2023-09-21T03:28:35.323Z,24.20
2023-09-21T03:31:02.285Z,24.10
2023-09-21T03:33:29.337Z,24.10
2023-09-21T03:35:57.608Z,24.10
2023-09-21T03:38:24.574Z,24.00
2023-09-21T03:40:51.622Z,24.00
2023-09-21T03:43:20.614Z,24.00
2023-09-21T03:45:48.183Z,24.00
2023-09-21T03:48:15.379Z,23.90
2023-09-21T03:50:44.156Z,23.90
2023-09-21T03:53:12.076Z,23.90
2023-09-21T03:55:40.740Z,23.80
2023-09-21T03:58:08.752Z,23.80
2023-09-21T04:00:36.838Z,23.80
2023-09-21T04:03:12.964Z,23.70
2023-09-21T04:05:43.762Z,23.70
2023-09-21T04:08:10.954Z,23.70
2023-09-21T04:10:38.279Z,23.70
2023-09-21T04:13:06.991Z,23.70
2023-09-21T04:15:34.332Z,23.70
2023-09-21T04:18:02.956Z,23.70
2023-09-21T04:20:36.608Z,23.70
2023-09-21T04:23:04.862Z,23.70
2023-09-21T04:25:33.994Z,23.70
2023-09-21T04:28:01.281Z,23.70
2023-09-21T04:30:28.267Z,23.70
2023-09-21T04:32:56.864Z,23.70
2023-09-21T04:35:24.431Z,23.70
2023-09-21T04:37:59.833Z,23.70
2023-09-21T04:40:27.761Z,23.70
2023-09-21T04:42:55.955Z,23.70
2023-09-21T04:45:23.597Z,23.70
2023-09-21T04:47:53.762Z,23.70
2023-09-21T04:50:20.776Z,23.70
2023-09-21T04:52:51.223Z,23.70
2023-09-21T04:55:18.546Z,23.70
2023-09-21T04:57:46.203Z,23.70
2023-09-21T05:00:15.841Z,23.70
2023-09-21T05:02:44.382Z,23.70
2023-09-21T05:05:12.324Z,23.70
2023-09-21T05:07:39.618Z,23.70
2023-09-21T05:10:08.608Z,23.80
2023-09-21T05:12:36.252Z,23.80
2023-09-21T05:15:08.621Z,23.80
2023-09-21T05:17:39.371Z,23.80
2023-09-21T05:20:10.863Z,23.80
2023-09-21T05:22:41.310Z,23.90
2023-09-21T05:25:09.144Z,23.90
2023-09-21T05:27:40.153Z,23.90
2023-09-21T05:30:10.486Z,23.90
2023-09-21T05:32:39.337Z,23.90
2023-09-21T05:35:09.180Z,23.90
2023-09-21T05:37:37.542Z,23.90
2023-09-21T05:40:09.062Z,23.90
2023-09-21T05:42:36.569Z,23.90
2023-09-21T05:45:04.431Z,23.90
2023-09-21T05:47:31.773Z,23.90
2023-09-21T05:49:58.766Z,23.90
2023-09-21T05:52:27.077Z,23.90
2023-09-21T05:54:54.285Z,23.80
2023-09-21T05:57:22.759Z,23.80
2023-09-21T05:59:51.606Z,23.80
2023-09-21T06:02:18.663Z,23.80
2023-09-21T06:04:45.822Z,23.70
2023-09-21T06:07:12.891Z,23.70
2023-09-21T06:09:40.431Z,23.70
2023-09-21T06:12:08.975Z,23.70
2023-09-21T06:14:39.263Z,23.70
2023-09-21T06:17:07.427Z,23.70
2023-09-21T06:19:35.230Z,23.70
2023-09-21T06:22:02.157Z,23.70
2023-09-21T06:24:29.129Z,23.60
2023-09-21T06:26:56.229Z,23.60
2023-09-21T06:29:24.326Z,23.60
2023-09-21T06:34:26.071Z,23.70
2023-09-21T06:36:54.286Z,23.70
2023-09-21T06:39:22.893Z,23.70
2023-09-21T06:41:50.051Z,23.70
2023-09-21T06:44:19.473Z,23.70
2023-09-21T06:46:47.096Z,23.80
2023-09-21T06:49:14.310Z,23.90
2023-09-21T06:51:41.346Z,23.90
2023-09-21T06:54:08.422Z,24.00
2023-09-21T06:56:35.570Z,24.00
2023-09-21T06:59:02.442Z,24.10
2023-09-21T07:01:30.228Z,24.20
2023-09-21T07:03:57.285Z,24.20
2023-09-21T07:06:24.387Z,24.30
2023-09-21T07:08:52.118Z,24.30
2023-09-21T07:11:22.122Z,24.30
2023-09-21T07:13:49.087Z,24.40
2023-09-21T07:16:17.188Z,24.40
2023-09-21T07:18:47.634Z,24.50
2023-09-21T07:21:15.400Z,24.60
2023-09-21T07:23:42.987Z,24.70
2023-09-21T07:26:10.002Z,24.70
2023-09-21T07:28:36.919Z,24.80
2023-09-21T07:31:04.560Z,24.90
2023-09-21T07:33:32.195Z,25.00
2023-09-21T07:35:59.504Z,25.10
2023-09-21T07:38:28.565Z,25.10
2023-09-21T07:40:55.675Z,25.20
2023-09-21T07:43:22.684Z,25.20
2023-09-21T07:45:53.443Z,25.30
2023-09-21T07:48:21.773Z,25.30
2023-09-21T07:50:50.971Z,25.40
2023-09-21T07:53:18.163Z,25.40
2023-09-21T07:55:45.205Z,25.40
2023-09-21T07:58:12.084Z,25.40
2023-09-21T08:00:38.965Z,25.40
2023-09-21T08:03:06.062Z,25.40
2023-09-21T08:05:33.913Z,25.50
2023-09-21T08:08:01.304Z,25.50
2023-09-21T08:10:28.979Z,25.50
2023-09-21T08:12:55.861Z,25.60
2023-09-21T08:15:23.023Z,25.60
2023-09-21T08:17:50.046Z,25.70
2023-09-21T08:20:17.236Z,25.70
2023-09-21T08:22:49.192Z,25.80
2023-09-21T08:25:16.596Z,25.90
2023-09-21T08:27:43.772Z,26.00
2023-09-21T08:30:14.194Z,26.00
2023-09-21T08:32:41.356Z,26.10
2023-09-21T08:35:09.273Z,26.20
2023-09-21T08:37:36.370Z,26.40
2023-09-21T08:40:07.499Z,26.50
2023-09-21T08:42:37.564Z,26.60
2023-09-21T08:45:11.120Z,26.60
2023-09-21T08:47:41.222Z,26.80
2023-09-21T08:50:10.399Z,26.90
2023-09-21T08:52:37.831Z,27.00
2023-09-21T08:55:05.310Z,27.10
2023-09-21T08:57:32.917Z,27.20
2023-09-21T09:00:10.122Z,27.30
2023-09-21T09:02:37.591Z,27.30
2023-09-21T09:05:09.125Z,27.40
2023-09-21T09:07:42.764Z,27.50
2023-09-21T09:10:13.595Z,27.70
2023-09-21T09:12:42.430Z,27.70
2023-09-21T09:15:11.674Z,27.80
2023-09-21T09:17:41.437Z,27.80
2023-09-21T09:20:09.322Z,27.90
2023-09-21T09:22:36.629Z,28.00
2023-09-21T09:25:08.945Z,28.00
2023-09-21T09:27:36.383Z,28.10
2023-09-21T09:30:10.543Z,28.10
2023-09-21T09:32:45.632Z,28.10
2023-09-21T09:35:16.311Z,28.20
2023-09-21T09:37:44.582Z,28.30
2023-09-21T09:40:15.949Z,28.40
2023-09-21T09:42:44.711Z,28.50
2023-09-21T09:45:20.414Z,28.50
2023-09-21T09:47:57.345Z,28.50
2023-09-21T09:50:34.697Z,28.60
2023-09-21T09:53:12.237Z,28.80
2023-09-21T09:55:43.587Z,29.00
2023-09-21T09:58:15.111Z,29.20
2023-09-21T10:00:46.675Z,29.40
2023-09-21T10:03:15.171Z,29.50
2023-09-21T10:05:45.276Z,29.50
2023-09-21T10:08:12.380Z,29.50
2023-09-21T10:10:47.329Z,29.50
2023-09-21T10:13:14.885Z,29.50
2023-09-21T10:15:42.836Z,29.40
2023-09-21T10:18:10.578Z,29.40
2023-09-21T10:20:38.804Z,29.40
2023-09-21T10:23:13.026Z,29.40
2023-09-21T10:25:42.631Z,29.30
2023-09-21T10:28:44.228Z,29.30
2023-09-21T10:31:24.370Z,29.20
2023-09-21T10:33:52.540Z,29.20
2023-09-21T10:36:22.242Z,29.20
2023-09-21T10:39:07.670Z,29.10
2023-09-21T10:41:35.254Z,29.10
2023-09-21T10:44:04.049Z,29.10
2023-09-21T10:46:38.976Z,29.10
2023-09-21T10:49:06.121Z,29.10
2023-09-21T10:51:34.639Z,29.10
2023-09-21T10:54:06.772Z,29.00
2023-09-21T10:56:35.705Z,29.10
2023-09-21T10:59:03.104Z,29.10
2023-09-21T11:01:30.847Z,29.20
2023-09-21T11:03:59.762Z,29.30
2023-09-21T11:06:27.838Z,29.30
2023-09-21T11:08:56.730Z,29.40
2023-09-21T11:11:26.465Z,29.50
2023-09-21T11:13:53.814Z,29.60
2023-09-21T11:16:21.218Z,29.60
2023-09-21T11:18:54.927Z,29.70
2023-09-21T11:21:23.442Z,29.80
2023-09-21T11:23:51.121Z,29.90
2023-09-21T11:26:18.593Z,30.00
2023-09-21T11:28:45.831Z,30.00
2023-09-21T11:31:16.757Z,30.10
2023-09-21T11:33:43.883Z,30.20
2023-09-21T11:36:10.903Z,30.20
2023-09-21T11:38:38.471Z,30.30
2023-09-21T11:41:05.996Z,30.30
2023-09-21T11:43:33.620Z,30.30
2023-09-21T11:46:04.767Z,30.40
2023-09-21T11:48:34.962Z,30.40
2023-09-21T11:51:06.644Z,30.40
2023-09-21T11:53:33.948Z,30.40
2023-09-21T11:56:01.428Z,30.40
2023-09-21T11:58:32.988Z,30.30
2023-09-21T12:01:08.889Z,30.40
2023-09-21T12:03:38.950Z,30.30
2023-09-21T12:06:06.602Z,30.40
2023-09-21T12:08:33.872Z,30.40
2023-09-21T12:11:00.999Z,30.40
2023-09-21T12:13:28.093Z,30.40
2023-09-21T12:15:58.610Z,30.40
2023-09-21T12:18:28.398Z,30.40
2023-09-21T12:20:58.931Z,30.40
2023-09-21T12:23:26.451Z,30.40
2023-09-21T12:25:54.254Z,30.40
2023-09-21T12:28:21.325Z,30.40
2023-09-21T12:30:50.110Z,30.50
2023-09-21T12:33:34.658Z,30.50
2023-09-21T12:36:06.577Z,30.60
2023-09-21T12:38:35.929Z,30.60
2023-09-21T12:41:03.117Z,30.70
2023-09-21T12:43:30.544Z,30.80
2023-09-21T12:45:58.688Z,30.90
2023-09-21T12:48:26.234Z,30.90
2023-09-21T12:50:53.503Z,31.00
2023-09-21T12:53:20.434Z,31.00
2023-09-21T12:55:47.486Z,31.00
2023-09-21T12:58:14.442Z,31.00
2023-09-21T13:00:42.244Z,31.00
2023-09-21T13:03:11.076Z,31.10
2023-09-21T13:05:39.728Z,31.10
2023-09-21T13:08:07.470Z,31.10
2023-09-21T13:10:34.800Z,31.10
2023-09-21T13:13:02.472Z,31.20
2023-09-21T13:15:31.584Z,31.20
2023-09-21T13:17:59.409Z,31.20
2023-09-21T13:20:26.824Z,31.20
2023-09-21T13:22:53.881Z,31.20
2023-09-21T13:25:20.895Z,31.20
2023-09-21T13:27:49.324Z,31.20
2023-09-21T13:30:19.427Z,31.20
2023-09-21T13:32:48.457Z,31.20
2023-09-21T13:35:17.110Z,31.10
2023-09-21T13:37:44.102Z,31.10
2023-09-21T13:40:11.500Z,31.10
2023-09-21T13:42:42.612Z,31.10
2023-09-21T13:45:11.188Z,31.10
2023-09-21T13:47:40.936Z,31.10
2023-09-21T13:50:09.565Z,31.10
2023-09-21T13:52:38.020Z,31.10
2023-09-21T13:55:17.384Z,31.10
2023-09-21T13:57:46.757Z,31.10
2023-09-21T14:00:15.809Z,31.10
2023-09-21T14:02:48.138Z,31.10
2023-09-21T14:05:17.288Z,31.10
2023-09-21T14:07:44.321Z,31.10
2023-09-21T14:10:11.600Z,31.20
2023-09-21T14:12:38.715Z,31.20
2023-09-21T14:15:07.024Z,31.20
2023-09-21T14:17:35.618Z,31.30
2023-09-21T14:20:04.406Z,31.20
2023-09-21T14:22:31.518Z,31.20
2023-09-21T14:24:58.454Z,31.20
2023-09-21T14:27:25.863Z,31.10
2023-09-21T14:29:52.977Z,31.10
2023-09-21T14:32:19.938Z,31.00
2023-09-21T14:34:47.042Z,31.00
2023-09-21T14:37:14.016Z,31.00
2023-09-21T14:39:41.409Z,30.90
2023-09-21T14:42:08.584Z,30.80
2023-09-21T14:44:35.535Z,30.70
2023-09-21T14:47:04.310Z,30.70
2023-09-21T14:49:31.486Z,30.60
2023-09-21T14:51:59.138Z,30.50
2023-09-21T14:54:26.091Z,30.30
2023-09-21T14:56:53.044Z,30.20
2023-09-21T14:59:20.008Z,30.10
2023-09-21T15:01:47.106Z,30.00
2023-09-21T15:04:14.451Z,29.90
2023-09-21T15:06:41.623Z,29.90
2023-09-21T15:09:10.544Z,30.00
2023-09-21T15:11:39.334Z,30.30
2023-09-21T15:14:06.494Z,30.80
2023-09-21T15:16:33.667Z,31.40
2023-09-21T15:19:01.331Z,31.90
2023-09-21T15:21:28.629Z,32.40
2023-09-21T15:23:55.641Z,32.60
2023-09-21T15:26:22.659Z,32.80
2023-09-21T15:28:49.637Z,32.80
2023-09-21T15:31:18.005Z,32.70
2023-09-21T15:33:45.136Z,32.80
2023-09-21T15:36:12.294Z,32.70
2023-09-21T15:38:39.254Z,32.50
2023-09-21T15:41:06.247Z,32.40
2023-09-21T15:43:33.204Z,32.20
2023-09-21T15:46:00.490Z,32.10
2023-09-21T15:48:33.393Z,31.90
2023-09-21T15:51:04.268Z,31.70
2023-09-21T15:53:31.318Z,31.50
2023-09-21T15:55:58.300Z,31.40
2023-09-21T15:58:25.907Z,31.20
2023-09-21T16:00:53.449Z,31.10
2023-09-21T16:03:21.915Z,30.90
2023-09-21T16:05:49.685Z,30.80
2023-09-21T16:08:16.849Z,30.70
2023-09-21T16:10:44.663Z,30.60
2023-09-21T16:13:11.851Z,30.60
2023-09-21T16:15:41.030Z,30.50
2023-09-21T16:18:09.136Z,30.40
2023-09-21T16:20:37.077Z,30.30
2023-09-21T16:23:04.417Z,30.30
2023-09-21T16:25:31.454Z,30.20
2023-09-21T16:27:58.595Z,30.20
2023-09-21T16:30:25.984Z,30.10
2023-09-21T16:32:55.697Z,30.00
2023-09-21T16:35:22.866Z,30.00
2023-09-21T16:37:51.089Z,29.90
2023-09-21T16:40:19.894Z,29.90
2023-09-21T16:42:47.602Z,29.80
2023-09-21T16:45:15.553Z,29.80
2023-09-21T16:47:43.287Z,29.70
2023-09-21T16:50:11.073Z,29.70
2023-09-21T16:52:38.275Z,29.60
2023-09-21T16:55:05.949Z,29.50
2023-09-21T16:57:33.425Z,29.50
2023-09-21T17:00:00.651Z,29.40
2023-09-21T17:02:28.289Z,29.30
2023-09-21T17:04:55.622Z,29.30
2023-09-21T17:07:22.578Z,29.30
2023-09-21T17:09:49.762Z,29.20
2023-09-21T17:12:17.350Z,29.20
2023-09-21T17:14:44.703Z,29.10
2023-09-21T17:17:11.678Z,29.10
2023-09-21T17:19:38.591Z,29.00
2023-09-21T17:22:05.793Z,29.00
2023-09-21T17:24:32.912Z,28.90
2023-09-21T17:27:00.327Z,28.90
2023-09-21T17:29:30.197Z,28.90
2023-09-21T17:31:57.737Z,28.80
2023-09-21T17:34:24.696Z,28.80
2023-09-21T17:36:51.681Z,28.70
2023-09-21T17:39:18.728Z,28.70
2023-09-21T17:41:46.005Z,28.70
2023-09-21T17:44:12.924Z,28.70
2023-09-21T17:46:40.115Z,28.60
2023-09-21T17:49:07.246Z,28.60
2023-09-21T17:51:34.535Z,28.60
2023-09-21T17:54:08.113Z,28.50
2023-09-21T17:56:36.830Z,28.50
2023-09-21T17:59:04.821Z,28.50
2023-09-21T18:01:32.726Z,28.40
2023-09-21T18:03:59.991Z,28.50
2023-09-21T18:06:27.063Z,28.50
2023-09-21T18:08:53.996Z,28.40
2023-09-21T18:11:21.081Z,28.40
2023-09-21T18:13:49.355Z,28.40
2023-09-21T18:16:17.894Z,28.40
2023-09-21T18:18:47.796Z,28.40
2023-09-21T18:21:14.996Z,28.40
2023-09-21T18:23:42.702Z,28.30
2023-09-21T18:26:09.687Z,28.30
2023-09-21T18:28:36.747Z,28.30
2023-09-21T18:31:03.841Z,28.30
2023-09-21T18:33:30.785Z,28.30
2023-09-21T18:35:57.792Z,28.30
2023-09-21T18:38:24.829Z,28.30
2023-09-21T18:40:53.512Z,28.30
2023-09-21T18:43:20.479Z,28.30
2023-09-21T18:45:47.609Z,28.30
2023-09-21T18:48:14.895Z,28.20
2023-09-21T18:50:43.055Z,28.20
2023-09-21T18:53:10.291Z,28.20
2023-09-21T18:55:37.805Z,28.20
2023-09-21T18:58:07.164Z,28.10
2023-09-21T19:00:37.677Z,28.10
2023-09-21T19:03:07.280Z,28.10
2023-09-21T19:05:34.393Z,28.10
2023-09-21T19:08:01.370Z,28.10
2023-09-21T19:10:28.485Z,28.10
2023-09-21T19:12:55.501Z,28.10
2023-09-21T19:15:22.539Z,28.10
2023-09-21T19:17:49.574Z,28.10
2023-09-21T19:20:16.916Z,28.10
2023-09-21T19:22:48.584Z,28.10
2023-09-21T19:25:15.700Z,28.10
2023-09-21T19:27:42.747Z,28.10
2023-09-21T19:30:10.495Z,28.00
2023-09-21T19:32:37.826Z,28.00
2023-09-21T19:35:06.025Z,27.90
2023-09-21T19:37:33.180Z,27.80
2023-09-21T19:40:00.211Z,27.80
2023-09-21T19:42:28.192Z,27.70
2023-09-21T19:44:56.484Z,27.70
2023-09-21T19:47:23.421Z,27.60
2023-09-21T19:49:51.789Z,27.60
2023-09-21T19:52:18.817Z,27.60
2023-09-21T19:54:45.810Z,27.50
2023-09-21T19:57:12.814Z,27.50
2023-09-21T19:59:39.879Z,27.40
2023-09-21T20:02:08.034Z,27.30
2023-09-21T20:04:35.272Z,27.30
2023-09-21T20:07:02.420Z,27.20
2023-09-21T20:09:30.415Z,27.20
2023-09-21T20:11:57.427Z,27.20
2023-09-21T20:14:24.504Z,27.10
2023-09-21T20:16:51.553Z,27.10
2023-09-21T20:19:18.610Z,27.00
2023-09-21T20:21:45.796Z,27.00
2023-09-21T20:24:12.914Z,27.00
2023-09-21T20:26:39.867Z,27.00
2023-09-21T20:29:08.871Z,26.90
2023-09-21T20:31:36.080Z,26.90
2023-09-21T20:34:04.239Z,26.90
2023-09-21T20:36:31.552Z,27.00
2023-09-21T20:38:58.600Z,27.00
2023-09-21T20:41:25.904Z,27.00
2023-09-21T20:43:53.081Z,27.10
2023-09-21T20:46:21.983Z,27.00
2023-09-21T20:48:49.296Z,27.00
2023-09-21T20:51:16.690Z,27.10
2023-09-21T20:53:44.179Z,27.10
2023-09-21T20:56:12.628Z,27.00
2023-09-21T20:58:40.340Z,27.00
2023-09-21T21:01:07.402Z,27.00
2023-09-21T21:03:34.531Z,27.00
2023-09-21T21:06:01.652Z,27.00
2023-09-21T21:08:28.696Z,27.00
2023-09-21T21:10:55.742Z,27.00
2023-09-21T21:13:22.907Z,27.00
2023-09-21T21:15:49.885Z,27.00
2023-09-21T21:18:17.008Z,27.00
2023-09-21T21:20:44.365Z,26.90
2023-09-21T21:23:11.304Z,26.90
2023-09-21T21:25:38.215Z,26.90
2023-09-21T21:28:05.338Z,26.90
2023-09-21T21:30:33.745Z,26.90
2023-09-21T21:33:01.045Z,26.90
2023-09-21T21:35:28.076Z,26.80
2023-09-21T21:37:54.944Z,26.80
2023-09-21T21:40:21.853Z,26.80
2023-09-21T21:42:48.942Z,26.80
2023-09-21T21:45:15.955Z,26.80
2023-09-21T21:47:42.883Z,26.70
2023-09-21T21:50:10.409Z,26.70
2023-09-21T21:52:37.429Z,26.70
2023-09-21T21:55:05.138Z,26.70
2023-09-21T21:57:32.084Z,26.70
2023-09-21T21:59:59.995Z,26.70
2023-09-21T22:02:26.983Z,26.70
2023-09-21T22:04:54.013Z,26.70
2023-09-21T22:07:22.120Z,26.70
2023-09-21T22:09:50.785Z,26.70
2023-09-21T22:12:19.624Z,26.70
2023-09-21T22:14:46.651Z,26.80
2023-09-21T22:17:13.595Z,26.80
2023-09-21T22:19:40.546Z,26.80
2023-09-21T22:22:07.488Z,26.80
2023-09-21T22:24:34.839Z,26.80
2023-09-21T22:27:01.813Z,26.70
2023-09-21T22:29:28.778Z,26.70
2023-09-21T22:31:55.670Z,26.70
2023-09-21T22:34:22.600Z,26.60
2023-09-21T22:36:49.565Z,26.60
2023-09-21T22:39:17.759Z,26.60
2023-09-21T22:41:44.964Z,26.50
2023-09-21T22:44:11.870Z,26.50
2023-09-21T22:46:38.886Z,26.50
2023-09-21T22:49:05.939Z,26.50
2023-09-21T22:51:32.916Z,26.50
2023-09-21T22:54:00.851Z,26.50
2023-09-21T22:56:27.872Z,26.50
2023-09-21T22:58:55.040Z,26.50
2023-09-21T23:01:21.976Z,26.40
2023-09-21T23:03:49.262Z,26.40
2023-09-21T23:06:17.514Z,26.50
2023-09-21T23:08:45.600Z,26.40
2023-09-21T23:11:13.290Z,26.40
2023-09-21T23:13:40.752Z,26.40
2023-09-21T23:16:11.355Z,26.40
2023-09-21T23:18:38.727Z,26.40
2023-09-21T23:21:07.180Z,26.40
2023-09-21T23:23:35.148Z,26.30
2023-09-21T23:26:02.980Z,26.30
2023-09-21T23:28:29.881Z,26.30
2023-09-21T23:30:58.195Z,26.20
2023-09-21T23:33:25.200Z,26.20
2023-09-21T23:35:52.143Z,26.20
2023-09-21T23:38:20.789Z,26.20
2023-09-21T23:40:48.150Z,26.10
2023-09-21T23:43:15.161Z,26.10
2023-09-21T23:45:42.096Z,26.10
2023-09-21T23:48:09.305Z,26.10
2023-09-21T23:50:36.269Z,26.10
2023-09-21T23:53:03.394Z,26.00
2023-09-21T23:55:30.514Z,26.00
2023-09-21T23:57:57.516Z,26.00
